createdAt,value
2019-04-11T00:00:39.611Z,97775.00
2019-04-11T00:03:11.344Z,97768.00
2019-04-11T00:05:41.341Z,97782.00
2019-04-11T00:08:10.648Z,97794.00
2019-04-11T00:10:41.685Z,97778.00
2019-04-11T00:13:19.823Z,97787.00
2019-04-11T00:15:42.567Z,97792.00
2019-04-11T00:18:12.411Z,97786.00
2019-04-11T00:20:45.122Z,97782.00
2019-04-11T00:23:14.466Z,97784.00
2019-04-11T00:25:44.093Z,97784.00
2019-04-11T00:28:17.396Z,97779.00
2019-04-11T00:30:46.215Z,97798.00
2019-04-11T00:33:16.123Z,97791.00
2019-04-11T00:35:46.051Z,97790.00
2019-04-11T00:38:16.005Z,97791.00
2019-04-11T00:40:45.835Z,97779.00
2019-04-11T00:43:28.065Z,97793.00
2019-04-11T00:45:48.101Z,97790.00
2019-04-11T00:48:19.707Z,97786.00
2019-04-11T00:50:49.626Z,97785.00
2019-04-11T00:53:19.468Z,97786.00
2019-04-11T00:55:49.763Z,97795.00
2019-04-11T00:58:19.878Z,97799.00
2019-04-11T01:00:51.342Z,97795.00
2019-04-11T01:03:20.689Z,97794.00
2019-04-11T01:05:50.147Z,97794.00
2019-04-11T01:08:20.174Z,97795.00
2019-04-11T01:10:49.774Z,97796.00
2019-04-11T01:13:19.272Z,97792.00
2019-04-11T01:16:03.578Z,97789.00
2019-04-11T01:18:36.180Z,97787.00
2019-04-11T01:21:06.214Z,97796.00
2019-04-11T01:23:35.844Z,97808.00
2019-04-11T01:26:05.348Z,97796.00
2019-04-11T01:28:34.685Z,97789.00
2019-04-11T01:31:09.469Z,97799.00
2019-04-11T01:33:40.175Z,97806.00
2019-04-11T01:36:09.585Z,97798.00
2019-04-11T01:38:44.210Z,97809.00
2019-04-11T01:41:14.095Z,97807.00
2019-04-11T01:43:53.441Z,97812.00
2019-04-11T01:46:14.699Z,97807.00
2019-04-11T01:48:57.820Z,97820.00
2019-04-11T01:51:27.258Z,97807.00
2019-04-11T02:14:05.168Z,97839.00
2019-04-11T02:16:27.281Z,97839.00
2019-04-11T02:18:56.586Z,97834.00
2019-04-11T02:21:25.970Z,97837.00
2019-04-11T02:24:11.934Z,97843.00
2019-04-11T02:26:46.553Z,97841.00
2019-04-11T02:29:14.114Z,97841.00
2019-04-11T02:31:44.514Z,97833.00
2019-04-11T02:34:16.082Z,97845.00
2019-04-11T02:36:45.610Z,97856.00
2019-04-11T02:39:19.271Z,97857.00
2019-04-11T02:41:46.844Z,97839.00
2019-04-11T02:44:33.414Z,97855.00
2019-04-11T02:46:58.141Z,97846.00
2019-04-11T02:49:20.072Z,97847.00
2019-04-11T02:51:51.304Z,97851.00
2019-04-11T02:54:24.426Z,97859.00
2019-04-11T02:56:54.794Z,97848.00
2019-04-11T02:59:25.347Z,97864.00
2019-04-11T03:01:55.844Z,97850.00
2019-04-11T03:04:26.964Z,97867.00
2019-04-11T03:06:57.392Z,97859.00
2019-04-11T03:09:27.037Z,97860.00
2019-04-11T03:11:56.833Z,97863.00
2019-04-11T03:14:29.280Z,97852.00
2019-04-11T03:17:09.325Z,97868.00
2019-04-11T03:19:43.982Z,97868.00
2019-04-11T03:22:03.134Z,97865.00
2019-04-11T03:24:35.250Z,97859.00
2019-04-11T03:27:04.954Z,97862.00
2019-04-11T03:29:36.176Z,97868.00
2019-04-11T03:35:21.015Z,97869.00
2019-04-11T03:37:39.098Z,97873.00
2019-04-11T03:40:07.895Z,97872.00
2019-04-11T03:42:32.334Z,97882.00
2019-04-11T03:44:50.739Z,97873.00
2019-04-11T03:47:33.476Z,97877.00
2019-04-11T03:49:55.815Z,97878.00
2019-04-11T03:52:20.857Z,97876.00
2019-04-11T03:54:50.502Z,97885.00
2019-04-11T03:57:21.515Z,97877.00
2019-04-11T03:59:54.534Z,97897.00
2019-04-11T04:02:25.304Z,97896.00
2019-04-11T04:04:57.072Z,97897.00
2019-04-11T04:07:27.718Z,97900.00
2019-04-11T04:09:58.543Z,97892.00
2019-04-11T04:12:29.346Z,97915.00
2019-04-11T04:15:01.418Z,97900.00
2019-04-11T04:17:49.741Z,97902.00
2019-04-11T04:20:22.324Z,97917.00
2019-04-11T04:23:00.919Z,97913.00
2019-04-11T04:25:30.544Z,97910.00
2019-04-11T04:28:00.405Z,97925.00
2019-04-11T04:30:30.560Z,97916.00
2019-04-11T04:33:00.772Z,97932.00
2019-04-11T04:35:33.642Z,97926.00
2019-04-11T04:38:05.144Z,97913.00
2019-04-11T04:40:53.810Z,97915.00
2019-04-11T04:43:10.385Z,97926.00
2019-04-11T04:46:04.933Z,97920.00
2019-04-11T04:48:18.363Z,97929.00
2019-04-11T04:50:47.263Z,97932.00
2019-04-11T04:53:20.518Z,97926.00
2019-04-11T04:55:52.210Z,97936.00
2019-04-11T04:58:22.301Z,97943.00
2019-04-11T05:00:54.281Z,97948.00
2019-04-11T05:03:24.508Z,97964.00
2019-04-11T05:05:55.309Z,97953.00
2019-04-11T05:08:26.966Z,97961.00
2019-04-11T05:10:57.856Z,97967.00
2019-04-11T05:13:27.976Z,97961.00
2019-04-11T05:16:08.531Z,97962.00
2019-04-11T05:18:29.844Z,97963.00
2019-04-11T05:20:59.312Z,97969.00
2019-04-11T05:23:30.263Z,97969.00
2019-04-11T05:26:00.175Z,97958.00
2019-04-11T05:28:31.773Z,97957.00
2019-04-11T05:31:02.486Z,97974.00
2019-04-11T05:33:33.517Z,97967.00
2019-04-11T05:39:56.870Z,97982.00
2019-04-11T05:42:27.120Z,97992.00
2019-04-11T05:44:56.995Z,97975.00
2019-04-11T05:47:27.526Z,97997.00
2019-04-11T05:49:58.982Z,97994.00
2019-04-11T05:52:31.088Z,97984.00
2019-04-11T05:55:03.429Z,97988.00
2019-04-11T05:57:38.103Z,97996.00
2019-04-11T06:00:16.319Z,98007.00
2019-04-11T06:02:49.216Z,98011.00
2019-04-11T06:05:23.854Z,97996.00
2019-04-11T06:07:57.678Z,97990.00
2019-04-11T06:10:37.011Z,98003.00
2019-04-11T06:13:07.938Z,98001.00
2019-04-11T06:15:42.517Z,97997.00
2019-04-11T06:18:25.246Z,98001.00
2019-04-11T06:20:53.707Z,97998.00
2019-04-11T06:23:31.771Z,97994.00
2019-04-11T06:26:21.300Z,98002.00
2019-04-11T06:28:54.278Z,98007.00
2019-04-11T06:31:45.382Z,97984.00
2019-04-11T06:34:17.676Z,98015.00
2019-04-11T06:36:49.613Z,98003.00
2019-04-11T06:39:37.800Z,98001.00
2019-04-11T06:42:24.437Z,97998.00
2019-04-11T06:44:58.429Z,97996.00
2019-04-11T06:47:38.854Z,98000.00
2019-04-11T06:50:19.705Z,97999.00
2019-04-11T06:52:50.918Z,97996.00
2019-04-11T06:55:25.119Z,97994.00
2019-04-11T06:58:05.069Z,98021.00
2019-04-11T07:00:34.798Z,98011.00
2019-04-11T07:03:17.474Z,98013.00
2019-04-11T07:05:38.719Z,98008.00
2019-04-11T07:08:08.149Z,98004.00
2019-04-11T07:10:39.297Z,98010.00
2019-04-11T07:13:20.681Z,98011.00
2019-04-11T07:15:50.620Z,98017.00
2019-04-11T07:18:37.715Z,98009.00
2019-04-11T07:21:11.138Z,97998.00
2019-04-11T07:24:05.370Z,98016.00
2019-04-11T07:26:37.289Z,98015.00
2019-04-11T07:29:33.814Z,98009.00
2019-04-11T07:32:05.021Z,98004.00
2019-04-11T07:34:54.365Z,98011.00
2019-04-11T07:37:28.243Z,98013.00
2019-04-11T07:40:07.715Z,98009.00
2019-04-11T07:42:52.825Z,97999.00
2019-04-11T07:45:38.526Z,98011.00
2019-04-11T07:48:19.368Z,98012.00
2019-04-11T07:50:48.884Z,98015.00
2019-04-11T07:53:19.829Z,98022.00
2019-04-11T07:55:49.446Z,97998.00
2019-04-11T07:58:26.368Z,98008.00
2019-04-11T08:01:10.377Z,98003.00
2019-04-11T08:03:47.459Z,98001.00
2019-04-11T08:06:26.957Z,98000.00
2019-04-11T08:08:58.190Z,98016.00
2019-04-11T08:11:29.160Z,98009.00
2019-04-11T08:14:00.170Z,98001.00
2019-04-11T08:16:31.209Z,98006.00
2019-04-11T08:19:15.301Z,98010.00
2019-04-11T08:22:03.129Z,98005.00
2019-04-11T08:24:51.083Z,98012.00
2019-04-11T08:27:23.216Z,98016.00
2019-04-11T08:29:54.767Z,98032.00
2019-04-11T08:32:25.764Z,98022.00
2019-04-11T08:35:15.762Z,98014.00
2019-04-11T08:38:05.030Z,98022.00
2019-04-11T08:40:39.805Z,98013.00
2019-04-11T08:43:21.244Z,98018.00
2019-04-11T08:45:56.235Z,98018.00
2019-04-11T08:48:28.913Z,98024.00
2019-04-11T08:51:03.090Z,98028.00
2019-04-11T08:53:37.199Z,98028.00
2019-04-11T08:56:07.152Z,98023.00
2019-04-11T08:58:49.004Z,98015.00
2019-04-11T09:01:22.706Z,98023.00
2019-04-11T09:04:03.011Z,98034.00
2019-04-11T09:06:26.479Z,98047.00
2019-04-11T09:09:00.671Z,98037.00
2019-04-11T09:11:33.023Z,98032.00
2019-04-11T09:14:04.623Z,98030.00
2019-04-11T09:16:45.757Z,98024.00
2019-04-11T09:19:32.963Z,98028.00
2019-04-11T09:22:10.915Z,98032.00
2019-04-11T09:24:43.109Z,98034.00
2019-04-11T09:27:31.297Z,98021.00
2019-04-11T09:30:19.068Z,98018.00
2019-04-11T09:33:06.825Z,98025.00
2019-04-11T09:35:51.242Z,98029.00
2019-04-11T09:38:22.452Z,98033.00
2019-04-11T09:41:09.672Z,98018.00
2019-04-11T09:43:42.059Z,98016.00
2019-04-11T09:46:30.251Z,98027.00
2019-04-11T09:49:18.489Z,98023.00
2019-04-11T09:51:53.948Z,98010.00
2019-04-11T09:54:26.103Z,98025.00
2019-04-11T09:57:06.005Z,98025.00
2019-04-11T09:59:53.918Z,98010.00
2019-04-11T10:02:38.252Z,98012.00
2019-04-11T10:05:12.238Z,98001.00
2019-04-11T10:07:55.299Z,98004.00
2019-04-11T10:10:29.747Z,98002.00
2019-04-11T10:13:16.890Z,98008.00
2019-04-11T10:16:00.403Z,97994.00
2019-04-11T10:18:44.083Z,97997.00
2019-04-11T10:21:15.407Z,98008.00
2019-04-11T10:24:05.155Z,97997.00
2019-04-11T10:26:40.264Z,97999.00
2019-04-11T10:29:30.146Z,97997.00
2019-04-11T10:31:59.073Z,98000.00
2019-04-11T10:34:47.935Z,97998.00
2019-04-11T10:37:20.002Z,98014.00
2019-04-11T10:39:53.754Z,98005.00
2019-04-11T10:42:24.811Z,97996.00
2019-04-11T10:45:12.245Z,98007.00
2019-04-11T10:47:41.585Z,98008.00
2019-04-11T10:50:23.696Z,98016.00
2019-04-11T10:52:55.173Z,98030.00
2019-04-11T10:55:29.565Z,98025.00
2019-04-11T10:58:06.811Z,98013.00
2019-04-11T11:00:53.875Z,98013.00
2019-04-11T11:03:29.047Z,98005.00
2019-04-11T11:06:00.136Z,98000.00
2019-04-11T11:08:34.670Z,98014.00
2019-04-11T11:11:16.019Z,98006.00
2019-04-11T11:13:47.936Z,98004.00
2019-04-11T11:16:20.173Z,98013.00
2019-04-11T11:19:19.611Z,98003.00
2019-04-11T11:21:29.405Z,98015.00
2019-04-11T11:24:06.393Z,98014.00
2019-04-11T11:26:33.774Z,98008.00
2019-04-11T11:29:20.583Z,97997.00
2019-04-11T11:31:54.677Z,98015.00
2019-04-11T11:34:25.666Z,98034.00
2019-04-11T11:36:56.831Z,98023.00
2019-04-11T11:39:37.361Z,98029.00
2019-04-11T11:42:24.410Z,98030.00
2019-04-11T11:45:02.542Z,98016.00
2019-04-11T11:47:51.177Z,98033.00
2019-04-11T11:50:24.796Z,98025.00
2019-04-11T11:53:13.165Z,98026.00
2019-04-11T11:55:45.303Z,98030.00
2019-04-11T11:58:27.918Z,98031.00
2019-04-11T12:01:03.607Z,98029.00
2019-04-11T12:03:32.963Z,98013.00
2019-04-11T12:06:05.322Z,98018.00
2019-04-11T12:08:51.866Z,98008.00
2019-04-11T12:11:22.090Z,98012.00
2019-04-11T12:14:11.600Z,98002.00
2019-04-11T12:16:43.838Z,98022.00
2019-04-11T12:19:18.045Z,98003.00
2019-04-11T12:21:49.022Z,98007.00
2019-04-11T12:24:32.334Z,98000.00
2019-04-11T12:27:16.533Z,97991.00
2019-04-11T12:29:53.531Z,98008.00
2019-04-11T12:32:24.871Z,98000.00
2019-04-11T12:34:59.807Z,97998.00
2019-04-11T12:37:31.696Z,98015.00
2019-04-11T12:40:02.759Z,98000.00
2019-04-11T12:42:33.755Z,98001.00
2019-04-11T12:45:06.553Z,98006.00
2019-04-11T12:47:39.174Z,97992.00
2019-04-11T12:50:15.798Z,98001.00
2019-04-11T12:52:46.838Z,97990.00
2019-04-11T12:55:17.963Z,97998.00
2019-04-11T12:57:58.221Z,98004.00
2019-04-11T13:00:35.965Z,97995.00
2019-04-11T13:03:23.363Z,97996.00
2019-04-11T13:05:59.815Z,97993.00
2019-04-11T13:08:36.862Z,97997.00
2019-04-11T13:11:08.946Z,97988.00
2019-04-11T13:13:41.600Z,97987.00
2019-04-11T13:16:15.198Z,97986.00
2019-04-11T13:19:02.598Z,97983.00
2019-04-11T13:21:43.455Z,97994.00
2019-04-11T13:24:30.654Z,97986.00
2019-04-11T13:27:15.418Z,97987.00
2019-04-11T13:29:46.490Z,97984.00
2019-04-11T13:32:32.791Z,97984.00
2019-04-11T13:35:12.853Z,97977.00
2019-04-11T13:38:00.857Z,97981.00
2019-04-11T13:40:44.486Z,97979.00
2019-04-11T13:43:32.721Z,97995.00
2019-04-11T13:46:18.680Z,97979.00
2019-04-11T13:49:06.059Z,97986.00
2019-04-11T13:51:52.991Z,97972.00
2019-04-11T13:54:41.888Z,97986.00
2019-04-11T13:57:25.189Z,97970.00
2019-04-11T14:00:12.955Z,97971.00
2019-04-11T14:02:51.320Z,97977.00
2019-04-11T14:05:20.492Z,97963.00
2019-04-11T14:07:52.169Z,97956.00
2019-04-11T14:10:22.911Z,97953.00
2019-04-11T14:12:54.347Z,97969.00
2019-04-11T14:15:29.276Z,97966.00
2019-04-11T14:18:15.731Z,97962.00
2019-04-11T14:20:46.824Z,97966.00
2019-04-11T14:23:23.769Z,97958.00
2019-04-11T14:26:01.968Z,97964.00
2019-04-11T14:28:33.397Z,97949.00
2019-04-11T14:31:04.407Z,97953.00
2019-04-11T14:33:38.044Z,97956.00
2019-04-11T14:36:33.119Z,97949.00
2019-04-11T14:38:57.607Z,97947.00
2019-04-11T14:41:28.603Z,97945.00
2019-04-11T14:44:01.942Z,97965.00
2019-04-11T14:46:50.781Z,97943.00
2019-04-11T14:49:20.353Z,97947.00
2019-04-11T14:51:52.178Z,97946.00
2019-04-11T14:54:27.424Z,97940.00
2019-04-11T14:57:01.374Z,97955.00
2019-04-11T14:59:32.376Z,97948.00
2019-04-11T15:02:04.242Z,97938.00
2019-04-11T15:04:51.661Z,97951.00
2019-04-11T15:07:22.090Z,97953.00
2019-04-11T15:10:07.881Z,97955.00
2019-04-11T15:12:38.941Z,97950.00
2019-04-11T15:15:27.564Z,97952.00
2019-04-11T15:17:59.018Z,97952.00
2019-04-11T15:20:41.279Z,97968.00
2019-04-11T15:23:17.762Z,97941.00
2019-04-11T15:25:57.433Z,97942.00
2019-04-11T15:28:28.515Z,97948.00
2019-04-11T15:31:11.571Z,97948.00
2019-04-11T15:33:55.751Z,97948.00
2019-04-11T15:36:29.308Z,97953.00
2019-04-11T15:39:12.414Z,97957.00
2019-04-11T15:41:43.387Z,97951.00
2019-04-11T15:44:30.997Z,97950.00
2019-04-11T15:47:09.429Z,97951.00
2019-04-11T15:49:52.512Z,97951.00
2019-04-11T15:52:21.947Z,97953.00
2019-04-11T15:54:59.124Z,97962.00
2019-04-11T15:57:30.113Z,97957.00
2019-04-11T16:00:18.903Z,97959.00
2019-04-11T16:02:52.641Z,97971.00
2019-04-11T16:05:31.653Z,97960.00
2019-04-11T16:08:19.934Z,97958.00
2019-04-11T16:10:59.689Z,97960.00
2019-04-11T16:13:33.406Z,97968.00
2019-04-11T16:16:11.897Z,97962.00
2019-04-11T16:18:40.655Z,97960.00
2019-04-11T16:21:18.885Z,97955.00
2019-04-11T16:24:07.326Z,97963.00
2019-04-11T16:26:47.202Z,97969.00
2019-04-11T16:29:38.929Z,97976.00
2019-04-11T16:32:09.843Z,97967.00
2019-04-11T16:34:48.214Z,97977.00
2019-04-11T16:37:12.497Z,97970.00
2019-04-11T16:40:01.672Z,97975.00
2019-04-11T16:42:32.690Z,97975.00
2019-04-11T16:45:09.707Z,97973.00
2019-04-11T16:47:40.711Z,97978.00
2019-04-11T16:50:11.081Z,97970.00
2019-04-11T16:52:42.833Z,97986.00
2019-04-11T16:55:12.327Z,97975.00
2019-04-11T16:57:44.198Z,97974.00
2019-04-11T17:00:19.765Z,97987.00
2019-04-11T17:02:46.646Z,97976.00
2019-04-11T17:05:17.242Z,97981.00
2019-04-11T17:07:50.902Z,97981.00
2019-04-11T17:10:24.628Z,97984.00
2019-04-11T17:12:56.634Z,97975.00
2019-04-11T17:15:30.414Z,97986.00
2019-04-11T17:17:59.743Z,97986.00
2019-04-11T17:20:29.655Z,97975.00
2019-04-11T17:23:00.711Z,97975.00
2019-04-11T17:25:31.536Z,97988.00
2019-04-11T17:28:00.907Z,97981.00
2019-04-11T17:30:30.354Z,97987.00
2019-04-11T17:33:00.733Z,98000.00
2019-04-11T17:35:31.699Z,98010.00
2019-04-11T17:38:04.080Z,98008.00
2019-04-11T17:40:34.933Z,98021.00
2019-04-11T17:43:05.132Z,98018.00
2019-04-11T17:45:35.082Z,98017.00
2019-04-11T17:48:06.147Z,98016.00
2019-04-11T17:50:36.066Z,98025.00
2019-04-11T17:53:05.451Z,98036.00
2019-04-11T17:55:34.834Z,98026.00
2019-04-11T17:58:04.970Z,98031.00
2019-04-11T18:00:44.572Z,98028.00
2019-04-11T18:03:13.928Z,98024.00
2019-04-11T18:05:46.865Z,98036.00
2019-04-11T18:08:14.635Z,98037.00
2019-04-11T18:10:44.851Z,98031.00
2019-04-11T18:13:16.553Z,98042.00
2019-04-11T18:15:48.741Z,98055.00
2019-04-11T18:18:18.114Z,98041.00
2019-04-11T18:20:47.542Z,98062.00
2019-04-11T18:23:19.646Z,98056.00
2019-04-11T18:25:48.948Z,98053.00
2019-04-11T18:28:21.700Z,98058.00
2019-04-11T18:30:54.119Z,98058.00
2019-04-11T18:33:23.804Z,98066.00
2019-04-11T18:35:54.704Z,98078.00
2019-04-11T18:38:25.735Z,98078.00
2019-04-11T18:40:55.101Z,98074.00
2019-04-11T18:43:25.559Z,98070.00
2019-04-11T18:45:55.517Z,98080.00
2019-04-11T18:48:24.926Z,98076.00
2019-04-11T18:50:54.260Z,98086.00
2019-04-11T18:53:23.640Z,98087.00
2019-04-11T18:55:52.998Z,98087.00
2019-04-11T18:58:23.923Z,98099.00
2019-04-11T19:00:53.339Z,98109.00
2019-04-11T19:03:22.693Z,98110.00
2019-04-11T19:05:52.055Z,98108.00
2019-04-11T19:08:21.577Z,98115.00
2019-04-11T19:10:50.970Z,98103.00
2019-04-11T19:13:20.324Z,98116.00
2019-04-11T19:15:50.357Z,98116.00
2019-04-11T19:18:19.743Z,98124.00
2019-04-11T19:20:50.305Z,98124.00
2019-04-11T19:23:20.318Z,98119.00
2019-04-11T19:25:51.359Z,98128.00
2019-04-11T19:28:24.929Z,98124.00
2019-04-11T19:30:53.947Z,98121.00
2019-04-11T19:33:22.968Z,98129.00
2019-04-11T19:35:52.320Z,98135.00
2019-04-11T19:38:25.815Z,98138.00
2019-04-11T19:40:58.742Z,98132.00
2019-04-11T19:43:28.087Z,98121.00
2019-04-11T19:45:58.715Z,98140.00
2019-04-11T19:48:28.288Z,98119.00
2019-04-11T19:50:58.992Z,98134.00
2019-04-11T19:53:33.017Z,98128.00
2019-04-11T19:56:05.371Z,98130.00
2019-04-11T19:58:35.324Z,98137.00
2019-04-11T20:01:05.791Z,98143.00
2019-04-11T20:03:36.712Z,98141.00
2019-04-11T20:06:06.071Z,98141.00
2019-04-11T20:08:35.476Z,98139.00
2019-04-11T20:11:04.983Z,98151.00
2019-04-11T20:13:34.349Z,98139.00
2019-04-11T20:16:04.295Z,98145.00
2019-04-11T20:18:36.428Z,98137.00
2019-04-11T20:21:08.198Z,98136.00
2019-04-11T20:23:41.471Z,98140.00
2019-04-11T20:26:08.703Z,98123.00
2019-04-11T20:28:39.184Z,98139.00
2019-04-11T20:31:10.143Z,98145.00
2019-04-11T20:33:39.438Z,98134.00
2019-04-11T20:36:11.285Z,98134.00
2019-04-11T20:38:44.812Z,98131.00
2019-04-11T20:41:14.681Z,98132.00
2019-04-11T20:43:44.037Z,98142.00
2019-04-11T20:46:13.495Z,98139.00
2019-04-11T20:48:45.159Z,98136.00
2019-04-11T20:51:14.546Z,98136.00
2019-04-11T20:53:43.944Z,98146.00
2019-04-11T20:56:23.606Z,98145.00
2019-04-11T20:58:44.520Z,98136.00
2019-04-11T21:01:14.567Z,98151.00
2019-04-11T21:03:45.224Z,98136.00
2019-04-11T21:06:14.575Z,98144.00
2019-04-11T21:08:44.019Z,98133.00
2019-04-11T21:11:13.362Z,98137.00
2019-04-11T21:13:42.823Z,98139.00
2019-04-11T21:16:16.155Z,98150.00
2019-04-11T21:18:45.501Z,98134.00
2019-04-11T21:21:17.561Z,98146.00
2019-04-11T21:23:48.489Z,98148.00
2019-04-11T21:26:18.890Z,98148.00
2019-04-11T21:28:49.338Z,98154.00
2019-04-11T21:31:20.600Z,98153.00
2019-04-11T21:33:51.498Z,98151.00
2019-04-11T21:36:22.432Z,98158.00
2019-04-11T21:38:52.616Z,98156.00
2019-04-11T21:41:22.619Z,98155.00
2019-04-11T21:43:52.622Z,98156.00
2019-04-11T21:46:26.750Z,98160.00
2019-04-11T21:48:56.063Z,98161.00
2019-04-11T21:51:26.992Z,98159.00
2019-04-11T21:53:57.393Z,98170.00
2019-04-11T21:56:29.946Z,98180.00
2019-04-11T21:58:59.299Z,98166.00
2019-04-11T22:01:29.742Z,98169.00
2019-04-11T22:03:59.377Z,98169.00
2019-04-11T22:06:30.505Z,98164.00
2019-04-11T22:08:59.900Z,98176.00
2019-04-11T22:11:29.329Z,98165.00
2019-04-11T22:13:58.802Z,98158.00
2019-04-11T22:16:28.281Z,98164.00
2019-04-11T22:18:57.714Z,98164.00
2019-04-11T22:21:27.083Z,98175.00
2019-04-11T22:23:58.375Z,98168.00
2019-04-11T22:26:27.900Z,98168.00
2019-04-11T22:28:57.338Z,98168.00
2019-04-11T22:31:26.699Z,98169.00
2019-04-11T22:33:57.971Z,98168.00
2019-04-11T22:36:30.838Z,98171.00
2019-04-11T22:39:02.692Z,98174.00
2019-04-11T22:41:34.411Z,98169.00
2019-04-11T22:44:07.795Z,98171.00
2019-04-11T22:46:38.358Z,98172.00
2019-04-11T22:49:08.956Z,98174.00
2019-04-11T22:51:43.422Z,98179.00
2019-04-11T22:54:13.172Z,98171.00
2019-04-11T22:56:44.194Z,98179.00
2019-04-11T22:59:14.728Z,98169.00
2019-04-11T23:01:47.073Z,98190.00
2019-04-11T23:04:17.174Z,98180.00
2019-04-11T23:06:47.852Z,98173.00
2019-04-11T23:09:19.475Z,98160.00
2019-04-11T23:11:52.233Z,98191.00
2019-04-11T23:14:21.615Z,98169.00
2019-04-11T23:16:51.015Z,98183.00
2019-04-11T23:19:20.934Z,98178.00
2019-04-11T23:21:54.243Z,98188.00
2019-04-11T23:24:24.939Z,98176.00
2019-04-11T23:26:54.592Z,98169.00
2019-04-11T23:29:23.951Z,98168.00
2019-04-11T23:31:53.324Z,98176.00
2019-04-11T23:34:22.778Z,98171.00
2019-04-11T23:36:54.342Z,98171.00
2019-04-11T23:39:23.718Z,98182.00
2019-04-11T23:41:55.903Z,98181.00
2019-04-11T23:44:25.284Z,98178.00
2019-04-11T23:46:55.577Z,98185.00
2019-04-11T23:49:25.257Z,98194.00
2019-04-11T23:51:56.771Z,98188.00
2019-04-11T23:54:29.217Z,98187.00
2019-04-11T23:57:00.960Z,98194.00
2019-04-11T23:59:31.995Z,98198.00
